sensor_id;sensor_type;location;lat;lon;timestamp;pressure;altitude;pressure_sealevel;temperature;humidity
31357;BME280;60001;48.404;11.738;2024-02-28T00:01:09;96067.34;;;5.19;92.42
31357;BME280;60001;48.404;11.738;2024-02-28T00:02:41;96072.72;;;5.24;92.09
31357;BME280;60001;48.404;11.738;2024-02-28T00:04:12;96070.63;;;5.14;92.74
31357;BME280;60001;48.404;11.738;2024-02-28T00:05:44;96071.53;;;5.08;92.46
31357;BME280;60001;48.404;11.738;2024-02-28T00:07:17;96063.69;;;5.08;92.86
31357;BME280;60001;48.404;11.738;2024-02-28T00:08:49;96073.13;;;5.09;92.77
31357;BME280;60001;48.404;11.738;2024-02-28T00:10:21;96063.44;;;5.10;93.12
31357;BME280;60001;48.404;11.738;2024-02-28T00:11:52;96067.09;;;5.09;92.78
31357;BME280;60001;48.404;11.738;2024-02-28T00:13:24;96065.50;;;5.08;93.12
31357;BME280;60001;48.404;11.738;2024-02-28T00:14:55;96072.41;;;5.02;93.43
31357;BME280;60001;48.404;11.738;2024-02-28T00:16:26;96072.75;;;5.06;93.12
31357;BME280;60001;48.404;11.738;2024-02-28T00:17:57;96057.81;;;4.94;93.21
31357;BME280;60001;48.404;11.738;2024-02-28T00:19:29;96067.19;;;5.02;93.70
31357;BME280;60001;48.404;11.738;2024-02-28T00:21:00;96068.78;;;5.03;93.22
31357;BME280;60001;48.404;11.738;2024-02-28T00:22:33;96067.88;;;5.09;92.50
31357;BME280;60001;48.404;11.738;2024-02-28T00:24:04;96071.28;;;5.10;92.87
31357;BME280;60001;48.404;11.738;2024-02-28T00:25:36;96065.28;;;5.09;92.38
31357;BME280;60001;48.404;11.738;2024-02-28T00:27:08;96069.72;;;5.09;92.78
31357;BME280;60001;48.404;11.738;2024-02-28T00:28:39;96062.38;;;4.99;93.13
31357;BME280;60001;48.404;11.738;2024-02-28T00:30:11;96063.16;;;5.00;92.73
31357;BME280;60001;48.404;11.738;2024-02-28T00:31:42;96058.88;;;5.05;92.93
31357;BME280;60001;48.404;11.738;2024-02-28T00:33:13;96054.88;;;5.03;92.68
31357;BME280;60001;48.404;11.738;2024-02-28T00:34:44;96057.19;;;5.11;93.08
31357;BME280;60001;48.404;11.738;2024-02-28T00:36:16;96065.59;;;5.13;92.87
31357;BME280;60001;48.404;11.738;2024-02-28T00:37:48;96055.47;;;5.05;93.22
31357;BME280;60001;48.404;11.738;2024-02-28T00:39:20;96058.91;;;5.17;92.90
31357;BME280;60001;48.404;11.738;2024-02-28T00:40:51;96055.94;;;5.13;92.42
31357;BME280;60001;48.404;11.738;2024-02-28T00:42:23;96060.03;;;5.09;92.63
31357;BME280;60001;48.404;11.738;2024-02-28T00:43:54;96065.84;;;5.11;92.66
31357;BME280;60001;48.404;11.738;2024-02-28T00:45:26;96061.63;;;5.10;92.94
31357;BME280;60001;48.404;11.738;2024-02-28T00:46:57;96070.50;;;5.09;92.93
31357;BME280;60001;48.404;11.738;2024-02-28T00:48:29;96064.75;;;5.01;93.13
31357;BME280;60001;48.404;11.738;2024-02-28T00:49:59;96069.34;;;5.05;93.33
31357;BME280;60001;48.404;11.738;2024-02-28T00:51:33;96068.19;;;5.01;93.08
31357;BME280;60001;48.404;11.738;2024-02-28T00:53:08;96075.03;;;5.02;93.50
31357;BME280;60001;48.404;11.738;2024-02-28T00:54:40;96085.25;;;4.74;95.44
31357;BME280;60001;48.404;11.738;2024-02-28T00:56:10;96078.53;;;4.78;95.26
31357;BME280;60001;48.404;11.738;2024-02-28T00:57:42;96080.19;;;4.90;94.22
31357;BME280;60001;48.404;11.738;2024-02-28T00:59:13;96085.66;;;4.89;93.67
31357;BME280;60001;48.404;11.738;2024-02-28T01:00:45;96078.31;;;4.79;93.95
31357;BME280;60001;48.404;11.738;2024-02-28T01:02:16;96087.56;;;4.82;93.99
31357;BME280;60001;48.404;11.738;2024-02-28T01:03:48;96080.13;;;4.79;93.73
31357;BME280;60001;48.404;11.738;2024-02-28T01:05:19;96100.88;;;4.80;93.69
31357;BME280;60001;48.404;11.738;2024-02-28T01:06:51;96091.41;;;4.79;93.71
31357;BME280;60001;48.404;11.738;2024-02-28T01:08:23;96100.03;;;4.80;93.30
31357;BME280;60001;48.404;11.738;2024-02-28T01:09:55;96102.31;;;4.76;94.12
31357;BME280;60001;48.404;11.738;2024-02-28T01:11:25;96112.41;;;4.73;94.00
31357;BME280;60001;48.404;11.738;2024-02-28T01:12:57;96100.78;;;4.50;94.72
31357;BME280;60001;48.404;11.738;2024-02-28T01:14:28;96114.31;;;4.47;94.84
31357;BME280;60001;48.404;11.738;2024-02-28T01:16:00;96108.28;;;4.47;93.94
31357;BME280;60001;48.404;11.738;2024-02-28T01:17:31;96093.97;;;4.49;93.09
31357;BME280;60001;48.404;11.738;2024-02-28T01:19:03;96123.44;;;4.56;93.32
31357;BME280;60001;48.404;11.738;2024-02-28T01:20:34;96122.66;;;4.56;93.65
31357;BME280;60001;48.404;11.738;2024-02-28T01:22:06;96126.88;;;4.57;93.76
31357;BME280;60001;48.404;11.738;2024-02-28T01:23:39;96133.91;;;4.56;93.87
31357;BME280;60001;48.404;11.738;2024-02-28T01:25:10;96138.19;;;4.51;93.98
31357;BME280;60001;48.404;11.738;2024-02-28T01:26:42;96137.31;;;4.38;94.63
31357;BME280;60001;48.404;11.738;2024-02-28T01:28:12;96132.97;;;4.32;94.70
31357;BME280;60001;48.404;11.738;2024-02-28T01:29:44;96146.53;;;4.41;94.82
31357;BME280;60001;48.404;11.738;2024-02-28T01:31:15;96155.41;;;4.40;94.53
31357;BME280;60001;48.404;11.738;2024-02-28T01:32:50;96158.50;;;4.30;94.01
31357;BME280;60001;48.404;11.738;2024-02-28T01:34:20;96144.34;;;4.20;94.20
31357;BME280;60001;48.404;11.738;2024-02-28T01:35:52;96147.84;;;4.32;93.04
31357;BME280;60001;48.404;11.738;2024-02-28T01:37:23;96149.41;;;4.15;94.12
31357;BME280;60001;48.404;11.738;2024-02-28T01:38:57;96150.84;;;4.10;94.22
31357;BME280;60001;48.404;11.738;2024-02-28T01:40:27;96161.88;;;4.12;94.00
31357;BME280;60001;48.404;11.738;2024-02-28T01:41:59;96153.13;;;4.25;93.08
31357;BME280;60001;48.404;11.738;2024-02-28T01:43:31;96160.06;;;4.13;93.50
31357;BME280;60001;48.404;11.738;2024-02-28T01:45:06;96164.38;;;4.01;94.87
31357;BME280;60001;48.404;11.738;2024-02-28T01:46:39;96162.78;;;4.00;95.76
31357;BME280;60001;48.404;11.738;2024-02-28T01:48:12;96168.22;;;3.98;95.82
31357;BME280;60001;48.404;11.738;2024-02-28T01:49:44;96148.84;;;3.81;96.03
31357;BME280;60001;48.404;11.738;2024-02-28T01:51:17;96173.13;;;3.88;96.75
31357;BME280;60001;48.404;11.738;2024-02-28T01:52:48;96168.63;;;3.95;96.68
31357;BME280;60001;48.404;11.738;2024-02-28T01:54:22;96158.88;;;4.09;95.61
31357;BME280;60001;48.404;11.738;2024-02-28T01:55:54;96184.91;;;4.22;95.29
31357;BME280;60001;48.404;11.738;2024-02-28T01:57:28;96174.44;;;4.22;94.84
31357;BME280;60001;48.404;11.738;2024-02-28T01:59:00;96176.81;;;4.05;95.72
31357;BME280;60001;48.404;11.738;2024-02-28T02:00:36;96175.63;;;4.01;95.21
31357;BME280;60001;48.404;11.738;2024-02-28T02:02:08;96172.28;;;3.94;95.72
31357;BME280;60001;48.404;11.738;2024-02-28T02:03:40;96182.25;;;4.04;95.13
31357;BME280;60001;48.404;11.738;2024-02-28T02:05:11;96172.97;;;3.83;96.07
31357;BME280;60001;48.404;11.738;2024-02-28T02:06:44;96172.53;;;3.86;96.18
31357;BME280;60001;48.404;11.738;2024-02-28T02:08:16;96170.91;;;3.92;96.14
31357;BME280;60001;48.404;11.738;2024-02-28T02:09:49;96166.28;;;3.87;96.29
31357;BME280;60001;48.404;11.738;2024-02-28T02:11:21;96175.06;;;3.99;95.51
31357;BME280;60001;48.404;11.738;2024-02-28T02:12:53;96173.75;;;4.08;94.07
31357;BME280;60001;48.404;11.738;2024-02-28T02:14:24;96144.34;;;3.95;94.26
31357;BME280;60001;48.404;11.738;2024-02-28T02:15:56;96161.34;;;4.04;94.04
31357;BME280;60001;48.404;11.738;2024-02-28T02:17:27;96167.53;;;4.09;93.51
31357;BME280;60001;48.404;11.738;2024-02-28T02:18:58;96167.31;;;4.11;93.58
31357;BME280;60001;48.404;11.738;2024-02-28T02:20:32;96167.44;;;3.98;94.32
31357;BME280;60001;48.404;11.738;2024-02-28T02:22:07;96155.84;;;3.87;94.81
31357;BME280;60001;48.404;11.738;2024-02-28T02:23:40;96167.38;;;4.04;94.78
31357;BME280;60001;48.404;11.738;2024-02-28T02:25:12;96170.78;;;4.05;94.33
31357;BME280;60001;48.404;11.738;2024-02-28T02:26:43;96168.81;;;4.00;94.93
31357;BME280;60001;48.404;11.738;2024-02-28T02:28:17;96172.78;;;4.03;95.14
31357;BME280;60001;48.404;11.738;2024-02-28T02:29:48;96179.03;;;4.02;95.40
31357;BME280;60001;48.404;11.738;2024-02-28T02:31:19;96179.03;;;4.02;95.53
31357;BME280;60001;48.404;11.738;2024-02-28T02:32:51;96178.59;;;4.11;95.60
31357;BME280;60001;48.404;11.738;2024-02-28T02:34:22;96179.66;;;4.04;96.01
31357;BME280;60001;48.404;11.738;2024-02-28T02:35:54;96179.97;;;4.14;96.00
31357;BME280;60001;48.404;11.738;2024-02-28T02:37:24;96177.78;;;4.11;95.31
31357;BME280;60001;48.404;11.738;2024-02-28T02:38:58;96175.00;;;4.06;95.51
31357;BME280;60001;48.404;11.738;2024-02-28T02:40:29;96187.44;;;4.10;96.00
31357;BME280;60001;48.404;11.738;2024-02-28T02:42:00;96170.91;;;3.92;97.10
31357;BME280;60001;48.404;11.738;2024-02-28T02:43:32;96160.28;;;3.87;96.62
31357;BME280;60001;48.404;11.738;2024-02-28T02:45:03;96177.78;;;4.11;96.13
31357;BME280;60001;48.404;11.738;2024-02-28T02:46:35;96177.34;;;4.14;96.07
31357;BME280;60001;48.404;11.738;2024-02-28T02:48:06;96179.78;;;4.09;96.20
31357;BME280;60001;48.404;11.738;2024-02-28T02:49:38;96179.97;;;4.14;96.50
31357;BME280;60001;48.404;11.738;2024-02-28T02:51:09;96177.13;;;4.16;95.45
31357;BME280;60001;48.404;11.738;2024-02-28T02:52:41;96176.50;;;4.20;96.09
31357;BME280;60001;48.404;11.738;2024-02-28T02:54:13;96171.03;;;4.22;95.58
31357;BME280;60001;48.404;11.738;2024-02-28T02:55:45;96154.03;;;4.12;95.52
31357;BME280;60001;48.404;11.738;2024-02-28T02:57:15;96174.03;;;4.25;95.97
31357;BME280;60001;48.404;11.738;2024-02-28T02:58:47;96173.03;;;4.26;95.73
31357;BME280;60001;48.404;11.738;2024-02-28T03:00:20;96120.88;;;3.88;95.67
31357;BME280;60001;48.404;11.738;2024-02-28T03:01:50;96174.50;;;4.16;95.73
31357;BME280;60001;48.404;11.738;2024-02-28T03:03:22;96175.41;;;4.03;96.99
31357;BME280;60001;48.404;11.738;2024-02-28T03:04:53;96172.38;;;4.06;97.33
31357;BME280;60001;48.404;11.738;2024-02-28T03:06:25;96175.41;;;4.03;97.79
31357;BME280;60001;48.404;11.738;2024-02-28T03:07:55;96179.78;;;4.09;96.61
31357;BME280;60001;48.404;11.738;2024-02-28T03:09:29;96179.38;;;4.12;96.71
31357;BME280;60001;48.404;11.738;2024-02-28T03:11:00;96171.06;;;3.97;96.91
31357;BME280;60001;48.404;11.738;2024-02-28T03:12:34;96178.59;;;4.11;95.59
31357;BME280;60001;48.404;11.738;2024-02-28T03:14:05;96184.69;;;3.99;96.64
31357;BME280;60001;48.404;11.738;2024-02-28T03:15:37;96180.09;;;3.94;97.15
31357;BME280;60001;48.404;11.738;2024-02-28T03:17:08;96174.63;;;4.02;96.34
31357;BME280;60001;48.404;11.738;2024-02-28T03:18:40;96170.31;;;3.90;97.33
31357;BME280;60001;48.404;11.738;2024-02-28T03:20:11;96178.38;;;3.81;98.09
31357;BME280;60001;48.404;11.738;2024-02-28T03:21:43;96178.94;;;3.90;98.70
31357;BME280;60001;48.404;11.738;2024-02-28T03:23:15;96184.69;;;3.99;97.51
31357;BME280;60001;48.404;11.738;2024-02-28T03:24:47;96157.13;;;3.78;97.85
31357;BME280;60001;48.404;11.738;2024-02-28T03:26:19;96192.44;;;4.12;96.49
31357;BME280;60001;48.404;11.738;2024-02-28T03:27:50;96191.31;;;4.01;97.34
31357;BME280;60001;48.404;11.738;2024-02-28T03:29:23;96174.72;;;3.89;97.29
31357;BME280;60001;48.404;11.738;2024-02-28T03:30:54;96189.13;;;3.98;97.65
31357;BME280;60001;48.404;11.738;2024-02-28T03:32:26;96188.22;;;3.86;97.72
31357;BME280;60001;48.404;11.738;2024-02-28T03:33:57;96186.09;;;4.01;97.40
31357;BME280;60001;48.404;11.738;2024-02-28T03:35:29;96195.47;;;4.09;96.44
31357;BME280;60001;48.404;11.738;2024-02-28T03:37:00;96195.69;;;4.07;96.11
31357;BME280;60001;48.404;11.738;2024-02-28T03:38:36;96195.47;;;4.09;96.27
31357;BME280;60001;48.404;11.738;2024-02-28T03:40:09;96199.78;;;4.22;96.04
31357;BME280;60001;48.404;11.738;2024-02-28T03:41:41;96193.94;;;4.26;95.93
31357;BME280;60001;48.404;11.738;2024-02-28T03:43:11;96201.81;;;4.20;96.03
31357;BME280;60001;48.404;11.738;2024-02-28T03:44:44;96198.19;;;4.21;95.75
31357;BME280;60001;48.404;11.738;2024-02-28T03:46:14;96195.38;;;4.22;94.78
31357;BME280;60001;48.404;11.738;2024-02-28T03:47:46;96200.59;;;4.22;94.71
31357;BME280;60001;48.404;11.738;2024-02-28T03:49:17;96188.06;;;4.06;94.28
31357;BME280;60001;48.404;11.738;2024-02-28T03:50:49;96190.47;;;4.07;94.81
31357;BME280;60001;48.404;11.738;2024-02-28T03:52:21;96213.06;;;4.20;94.15
31357;BME280;60001;48.404;11.738;2024-02-28T03:53:53;96212.50;;;4.18;93.80
31357;BME280;60001;48.404;11.738;2024-02-28T03:55:26;96164.25;;;3.89;93.83
31357;BME280;60001;48.404;11.738;2024-02-28T03:56:57;96224.38;;;4.14;94.22
31357;BME280;60001;48.404;11.738;2024-02-28T03:58:29;96221.84;;;4.01;94.91
31357;BME280;60001;48.404;11.738;2024-02-28T04:00:01;96222.56;;;4.15;94.67
31357;BME280;60001;48.404;11.738;2024-02-28T04:01:35;96224.03;;;4.10;94.61
31357;BME280;60001;48.404;11.738;2024-02-28T04:03:06;96228.28;;;4.05;94.64
31357;BME280;60001;48.404;11.738;2024-02-28T04:04:37;96233.50;;;4.05;94.48
31357;BME280;60001;48.404;11.738;2024-02-28T04:06:08;96236.94;;;3.99;93.97
31357;BME280;60001;48.404;11.738;2024-02-28T04:07:40;96232.94;;;3.96;94.65
31357;BME280;60001;48.404;11.738;2024-02-28T04:09:11;96241.59;;;3.97;94.30
31357;BME280;60001;48.404;11.738;2024-02-28T04:10:44;96241.63;;;3.90;94.91
31357;BME280;60001;48.404;11.738;2024-02-28T04:12:15;96245.31;;;3.82;95.35
31357;BME280;60001;48.404;11.738;2024-02-28T04:13:47;96245.91;;;3.78;96.01
31357;BME280;60001;48.404;11.738;2024-02-28T04:15:18;96246.28;;;3.81;96.22
31357;BME280;60001;48.404;11.738;2024-02-28T04:16:49;96248.72;;;3.83;95.42
31357;BME280;60001;48.404;11.738;2024-02-28T04:18:20;96251.47;;;3.88;94.49
31357;BME280;60001;48.404;11.738;2024-02-28T04:19:52;96246.47;;;3.87;94.80
31357;BME280;60001;48.404;11.738;2024-02-28T04:21:23;96242.47;;;3.84;94.87
31357;BME280;60001;48.404;11.738;2024-02-28T04:22:55;96248.09;;;3.81;94.67
31357;BME280;60001;48.404;11.738;2024-02-28T04:24:26;96240.91;;;3.76;94.55
31357;BME280;60001;48.404;11.738;2024-02-28T04:25:59;96244.56;;;3.69;95.45
31357;BME280;60001;48.404;11.738;2024-02-28T04:27:30;96248.16;;;3.68;94.98
31357;BME280;60001;48.404;11.738;2024-02-28T04:29:01;96246.75;;;3.72;95.86
31357;BME280;60001;48.404;11.738;2024-02-28T04:30:36;96231.16;;;3.58;95.73
31357;BME280;60001;48.404;11.738;2024-02-28T04:32:07;96248.59;;;3.65;95.80
31357;BME280;60001;48.404;11.738;2024-02-28T04:33:38;96254.03;;;3.63;96.25
31357;BME280;60001;48.404;11.738;2024-02-28T04:35:10;96260.06;;;3.64;97.45
31357;BME280;60001;48.404;11.738;2024-02-28T04:36:41;96260.63;;;3.72;96.62
31357;BME280;60001;48.404;11.738;2024-02-28T04:38:14;96267.22;;;3.75;96.33
31357;BME280;60001;48.404;11.738;2024-02-28T04:39:44;96275.06;;;3.75;96.12
31357;BME280;60001;48.404;11.738;2024-02-28T04:41:18;96276.06;;;3.74;96.22
31357;BME280;60001;48.404;11.738;2024-02-28T04:42:49;96273.25;;;3.75;96.32
31357;BME280;60001;48.404;11.738;2024-02-28T04:44:21;96274.03;;;3.82;96.54
31357;BME280;60001;48.404;11.738;2024-02-28T04:45:51;96261.00;;;3.76;96.51
31357;BME280;60001;48.404;11.738;2024-02-28T04:47:23;96276.00;;;3.87;95.96
31357;BME280;60001;48.404;11.738;2024-02-28T04:48:54;96278.44;;;3.82;96.48
31357;BME280;60001;48.404;11.738;2024-02-28T04:50:26;96276.44;;;3.84;96.62
31357;BME280;60001;48.404;11.738;2024-02-28T04:51:56;96278.84;;;3.79;96.26
31357;BME280;60001;48.404;11.738;2024-02-28T04:53:29;96265.91;;;3.59;97.63
31357;BME280;60001;48.404;11.738;2024-02-28T04:55:00;96283.31;;;3.72;97.33
31357;BME280;60001;48.404;11.738;2024-02-28T04:56:33;96291.34;;;3.77;97.43
31357;BME280;60001;48.404;11.738;2024-02-28T04:58:04;96298.13;;;3.84;96.83
31357;BME280;60001;48.404;11.738;2024-02-28T04:59:36;96286.84;;;3.91;96.89
31357;BME280;60001;48.404;11.738;2024-02-28T05:01:06;96282.56;;;3.96;96.17
31357;BME280;60001;48.404;11.738;2024-02-28T05:02:38;96280.16;;;3.95;96.11
31357;BME280;60001;48.404;11.738;2024-02-28T05:04:09;96295.81;;;4.01;95.96
31357;BME280;60001;48.404;11.738;2024-02-28T05:05:41;96295.84;;;3.95;96.07
31357;BME280;60001;48.404;11.738;2024-02-28T05:07:13;96293.22;;;3.95;95.84
31357;BME280;60001;48.404;11.738;2024-02-28T05:08:43;96298.03;;;4.04;95.00
31357;BME280;60001;48.404;11.738;2024-02-28T05:10:15;96307.72;;;3.97;95.46
31357;BME280;60001;48.404;11.738;2024-02-28T05:11:47;96310.50;;;3.96;95.87
31357;BME280;60001;48.404;11.738;2024-02-28T05:13:19;96311.13;;;3.98;96.18
31357;BME280;60001;48.404;11.738;2024-02-28T05:14:50;96315.91;;;4.01;95.80
31357;BME280;60001;48.404;11.738;2024-02-28T05:16:22;96312.25;;;4.08;95.69
31357;BME280;60001;48.404;11.738;2024-02-28T05:17:53;96316.47;;;4.09;95.58
31357;BME280;60001;48.404;11.738;2024-02-28T05:19:25;96321.34;;;3.99;95.70
31357;BME280;60001;48.404;11.738;2024-02-28T05:20:56;96319.94;;;4.03;96.04
31357;BME280;60001;48.404;11.738;2024-02-28T05:22:27;96319.50;;;4.06;96.45
31357;BME280;60001;48.404;11.738;2024-02-28T05:23:58;96313.72;;;3.98;96.07
31357;BME280;60001;48.404;11.738;2024-02-28T05:25:30;96319.13;;;3.96;97.22
31357;BME280;60001;48.404;11.738;2024-02-28T05:27:05;96327.81;;;3.97;97.75
31357;BME280;60001;48.404;11.738;2024-02-28T05:28:36;96322.72;;;4.02;97.65
31357;BME280;60001;48.404;11.738;2024-02-28T05:30:10;96332.13;;;4.09;97.37
31357;BME280;60001;48.404;11.738;2024-02-28T05:31:42;96334.72;;;4.16;97.05
31357;BME280;60001;48.404;11.738;2024-02-28T05:33:14;96333.75;;;4.10;97.16
31357;BME280;60001;48.404;11.738;2024-02-28T05:34:45;96327.53;;;4.11;97.13
31357;BME280;60001;48.404;11.738;2024-02-28T05:36:17;96328.47;;;4.17;96.88
31357;BME280;60001;48.404;11.738;2024-02-28T05:37:53;96290.63;;;3.95;97.06
31357;BME280;60001;48.404;11.738;2024-02-28T05:39:26;96315.25;;;4.12;96.75
31357;BME280;60001;48.404;11.738;2024-02-28T05:40:58;96325.50;;;4.13;96.64
31357;BME280;60001;48.404;11.738;2024-02-28T05:42:31;96330.06;;;4.25;96.48
31357;BME280;60001;48.404;11.738;2024-02-28T05:44:03;96329.44;;;4.23;96.24
31357;BME280;60001;48.404;11.738;2024-02-28T05:45:34;96336.88;;;4.26;96.14
31357;BME280;60001;48.404;11.738;2024-02-28T05:47:05;96339.34;;;4.14;96.45
31357;BME280;60001;48.404;11.738;2024-02-28T05:48:37;96354.56;;;4.24;96.19
31357;BME280;60001;48.404;11.738;2024-02-28T05:50:09;96354.56;;;4.24;96.28
31357;BME280;60001;48.404;11.738;2024-02-28T05:51:41;96361.81;;;4.22;96.18
31357;BME280;60001;48.404;11.738;2024-02-28T05:53:12;96361.28;;;4.13;97.13
31357;BME280;60001;48.404;11.738;2024-02-28T05:54:44;96355.28;;;4.06;97.00
31357;BME280;60001;48.404;11.738;2024-02-28T05:56:15;96361.56;;;3.98;97.33
31357;BME280;60001;48.404;11.738;2024-02-28T05:57:51;96369.19;;;3.93;97.71
31357;BME280;60001;48.404;11.738;2024-02-28T05:59:23;96382.75;;;4.15;96.58
31357;BME280;60001;48.404;11.738;2024-02-28T06:00:55;96388.16;;;4.27;95.44
31357;BME280;60001;48.404;11.738;2024-02-28T06:02:27;96392.75;;;4.31;94.54
31357;BME280;60001;48.404;11.738;2024-02-28T06:03:58;96396.75;;;4.34;94.33
31357;BME280;60001;48.404;11.738;2024-02-28T06:05:30;96403.22;;;4.31;94.03
31357;BME280;60001;48.404;11.738;2024-02-28T06:07:04;96395.13;;;4.39;93.98
31357;BME280;60001;48.404;11.738;2024-02-28T06:08:39;96394.72;;;4.36;93.64
31357;BME280;60001;48.404;11.738;2024-02-28T06:10:11;96380.41;;;4.07;95.53
31357;BME280;60001;48.404;11.738;2024-02-28T06:11:42;96401.63;;;4.24;95.93
31357;BME280;60001;48.404;11.738;2024-02-28T06:13:15;96405.84;;;4.25;95.37
31357;BME280;60001;48.404;11.738;2024-02-28T06:14:45;96389.88;;;3.95;97.16
31357;BME280;60001;48.404;11.738;2024-02-28T06:16:17;96399.69;;;4.12;97.10
31357;BME280;60001;48.404;11.738;2024-02-28T06:17:49;96405.91;;;4.11;97.77
31357;BME280;60001;48.404;11.738;2024-02-28T06:19:21;96400.44;;;4.20;97.33
31357;BME280;60001;48.404;11.738;2024-02-28T06:20:52;96400.41;;;4.26;96.82
31357;BME280;60001;48.404;11.738;2024-02-28T06:22:24;96400.44;;;4.20;97.12
31357;BME280;60001;48.404;11.738;2024-02-28T06:23:56;96412.25;;;4.29;96.97
31357;BME280;60001;48.404;11.738;2024-02-28T06:25:27;96396.81;;;4.21;96.73
31357;BME280;60001;48.404;11.738;2024-02-28T06:26:58;96412.84;;;4.31;96.96
31357;BME280;60001;48.404;11.738;2024-02-28T06:28:31;96398.81;;;4.25;96.85
31357;BME280;60001;48.404;11.738;2024-02-28T06:30:04;96411.06;;;4.31;97.02
31357;BME280;60001;48.404;11.738;2024-02-28T06:31:35;96410.63;;;4.34;97.11
31357;BME280;60001;48.404;11.738;2024-02-28T06:33:07;96411.41;;;4.35;97.67
31357;BME280;60001;48.404;11.738;2024-02-28T06:34:39;96405.22;;;4.29;97.92
31357;BME280;60001;48.404;11.738;2024-02-28T06:36:11;96406.63;;;4.32;97.84
31357;BME280;60001;48.404;11.738;2024-02-28T06:37:42;96419.66;;;4.38;98.29
31357;BME280;60001;48.404;11.738;2024-02-28T06:39:21;96425.03;;;4.44;97.75
31357;BME280;60001;48.404;11.738;2024-02-28T06:40:51;96421.38;;;4.51;96.96
31357;BME280;60001;48.404;11.738;2024-02-28T06:42:23;96431.59;;;4.59;96.31
31357;BME280;60001;48.404;11.738;2024-02-28T06:43:56;96435.22;;;4.58;96.19
31357;BME280;60001;48.404;11.738;2024-02-28T06:45:28;96432.06;;;4.50;96.94
31357;BME280;60001;48.404;11.738;2024-02-28T06:46:58;96437.72;;;4.47;97.49
31357;BME280;60001;48.404;11.738;2024-02-28T06:48:30;96438.47;;;4.54;97.30
31357;BME280;60001;48.404;11.738;2024-02-28T06:50:04;96449.31;;;4.57;97.62
31357;BME280;60001;48.404;11.738;2024-02-28T06:51:35;96450.91;;;4.58;96.99
31357;BME280;60001;48.404;11.738;2024-02-28T06:53:08;96437.25;;;4.56;97.38
31357;BME280;60001;48.404;11.738;2024-02-28T06:54:38;96449.16;;;4.52;98.35
31357;BME280;60001;48.404;11.738;2024-02-28T06:56:10;96457.16;;;4.57;98.66
31357;BME280;60001;48.404;11.738;2024-02-28T06:57:42;96450.91;;;4.58;97.85
31357;BME280;60001;48.404;11.738;2024-02-28T06:59:15;96444.69;;;4.59;98.23
31357;BME280;60001;48.404;11.738;2024-02-28T07:00:47;96449.47;;;4.62;98.14
31357;BME280;60001;48.404;11.738;2024-02-28T07:02:19;96452.50;;;4.66;98.04
31357;BME280;60001;48.404;11.738;2024-02-28T07:03:51;96455.25;;;4.71;97.76
31357;BME280;60001;48.404;11.738;2024-02-28T07:05:22;96459.50;;;4.65;97.81
31357;BME280;60001;48.404;11.738;2024-02-28T07:06:54;96465.34;;;4.67;98.18
31357;BME280;60001;48.404;11.738;2024-02-28T07:08:25;96462.97;;;4.66;98.39
31357;BME280;60001;48.404;11.738;2024-02-28T07:09:57;96468.75;;;4.75;97.73
31357;BME280;60001;48.404;11.738;2024-02-28T07:11:28;96467.50;;;4.77;98.01
31357;BME280;60001;48.404;11.738;2024-02-28T07:13:00;96463.28;;;4.76;98.13
31357;BME280;60001;48.404;11.738;2024-02-28T07:14:32;96459.25;;;4.80;97.81
31357;BME280;60001;48.404;11.738;2024-02-28T07:16:04;96419.78;;;4.50;97.78
31357;BME280;60001;48.404;11.738;2024-02-28T07:17:37;96472.38;;;4.74;99.01
31357;BME280;60001;48.404;11.738;2024-02-28T07:19:07;96468.13;;;4.73;98.40
31357;BME280;60001;48.404;11.738;2024-02-28T07:20:39;96464.84;;;4.84;98.41
31357;BME280;60001;48.404;11.738;2024-02-28T07:22:10;96470.22;;;4.95;98.17
31357;BME280;60001;48.404;11.738;2024-02-28T07:23:42;96454.13;;;4.92;97.16
31357;BME280;60001;48.404;11.738;2024-02-28T07:25:13;96465.53;;;5.04;96.99
31357;BME280;60001;48.404;11.738;2024-02-28T07:26:46;96468.44;;;4.89;97.97
31357;BME280;60001;48.404;11.738;2024-02-28T07:28:16;96469.25;;;4.90;98.21
31357;BME280;60001;48.404;11.738;2024-02-28T07:29:50;96459.31;;;4.99;97.69
31357;BME280;60001;48.404;11.738;2024-02-28T07:31:21;96464.59;;;4.92;97.97
31357;BME280;60001;48.404;11.738;2024-02-28T07:32:52;96470.22;;;4.95;98.83
31357;BME280;60001;48.404;11.738;2024-02-28T07:34:23;96467.59;;;4.95;98.80
31357;BME280;60001;48.404;11.738;2024-02-28T07:35:55;96466.63;;;4.90;99.06
31357;BME280;60001;48.404;11.738;2024-02-28T07:37:31;96464.75;;;4.97;98.66
31357;BME280;60001;48.404;11.738;2024-02-28T07:39:03;96471.81;;;4.97;98.68
31357;BME280;60001;48.404;11.738;2024-02-28T07:40:34;96468.75;;;5.00;98.17
31357;BME280;60001;48.404;11.738;2024-02-28T07:42:05;96450.25;;;5.01;97.71
31357;BME280;60001;48.404;11.738;2024-02-28T07:43:36;96466.31;;;5.05;98.12
31357;BME280;60001;48.404;11.738;2024-02-28T07:45:10;96464.22;;;5.13;97.62
31357;BME280;60001;48.404;11.738;2024-02-28T07:46:41;96469.31;;;5.08;97.59
31357;BME280;60001;48.404;11.738;2024-02-28T07:48:13;96465.09;;;5.07;98.27
31357;BME280;60001;48.404;11.738;2024-02-28T07:49:43;96464.50;;;5.05;98.62
31357;BME280;60001;48.404;11.738;2024-02-28T07:51:17;96477.38;;;5.07;98.63
31357;BME280;60001;48.404;11.738;2024-02-28T07:52:48;96459.22;;;5.12;97.29
31357;BME280;60001;48.404;11.738;2024-02-28T07:54:20;96470.13;;;5.09;97.79
31357;BME280;60001;48.404;11.738;2024-02-28T07:55:50;96467.28;;;5.10;98.16
31357;BME280;60001;48.404;11.738;2024-02-28T07:57:22;96473.28;;;5.17;97.57
31357;BME280;60001;48.404;11.738;2024-02-28T07:58:53;96471.63;;;5.23;97.08
31357;BME280;60001;48.404;11.738;2024-02-28T08:00:26;96476.66;;;5.25;97.32
31357;BME280;60001;48.404;11.738;2024-02-28T08:01:57;96469.41;;;5.20;97.63
31357;BME280;60001;48.404;11.738;2024-02-28T08:03:29;96465.03;;;5.14;97.62
31357;BME280;60001;48.404;11.738;2024-02-28T08:05:00;96469.59;;;5.25;97.42
31357;BME280;60001;48.404;11.738;2024-02-28T08:06:33;96478.88;;;5.21;96.84